sensor_id;sensor_type;location;lat;lon;timestamp;pressure;altitude;pressure_sealevel;temperature
76394;BMP180;65216;51.090;-115.352;2024-02-26T00:00:46;84180.40;;;22.60
76394;BMP180;65216;51.090;-115.352;2024-02-26T00:03:13;84167.60;;;22.60
76394;BMP180;65216;51.090;-115.352;2024-02-26T00:05:39;84172.80;;;22.60
76394;BMP180;65216;51.090;-115.352;2024-02-26T00:08:08;84196.80;;;22.60
76394;BMP180;65216;51.090;-115.352;2024-02-26T00:10:35;84177.20;;;22.60
76394;BMP180;65216;51.090;-115.352;2024-02-26T00:13:02;84161.40;;;22.60
76394;BMP180;65216;51.090;-115.352;2024-02-26T00:15:29;84139.40;;;22.60
76394;BMP180;65216;51.090;-115.352;2024-02-26T00:17:59;84169.00;;;22.60
76394;BMP180;65216;51.090;-115.352;2024-02-26T00:20:28;84161.40;;;22.60
76394;BMP180;65216;51.090;-115.352;2024-02-26T00:22:57;84166.20;;;22.60
76394;BMP180;65216;51.090;-115.352;2024-02-26T00:25:26;84145.60;;;22.60
76394;BMP180;65216;51.090;-115.352;2024-02-26T00:27:53;84138.20;;;22.60
76394;BMP180;65216;51.090;-115.352;2024-02-26T00:30:19;84149.00;;;22.60
76394;BMP180;65216;51.090;-115.352;2024-02-26T00:32:47;84128.80;;;22.60
76394;BMP180;65216;51.090;-115.352;2024-02-26T00:35:14;84123.60;;;22.60
76394;BMP180;65216;51.090;-115.352;2024-02-26T00:37:41;84131.80;;;22.60
76394;BMP180;65216;51.090;-115.352;2024-02-26T00:40:10;84142.00;;;22.60
76394;BMP180;65216;51.090;-115.352;2024-02-26T00:42:37;84152.80;;;22.58
76394;BMP180;65216;51.090;-115.352;2024-02-26T00:45:04;84144.20;;;22.60
76394;BMP180;65216;51.090;-115.352;2024-02-26T00:47:32;84132.40;;;22.58
76394;BMP180;65216;51.090;-115.352;2024-02-26T00:50:02;84164.40;;;22.54
76394;BMP180;65216;51.090;-115.352;2024-02-26T00:52:29;84156.20;;;22.50
76394;BMP180;65216;51.090;-115.352;2024-02-26T00:54:55;84152.00;;;22.50
76394;BMP180;65216;51.090;-115.352;2024-02-26T00:57:22;84144.00;;;22.50
76394;BMP180;65216;51.090;-115.352;2024-02-26T00:59:53;84154.80;;;22.50
76394;BMP180;65216;51.090;-115.352;2024-02-26T01:02:22;84157.80;;;22.50
76394;BMP180;65216;51.090;-115.352;2024-02-26T01:04:49;84171.80;;;22.50
76394;BMP180;65216;51.090;-115.352;2024-02-26T01:07:16;84171.20;;;22.50
76394;BMP180;65216;51.090;-115.352;2024-02-26T01:09:43;84144.80;;;22.50
76394;BMP180;65216;51.090;-115.352;2024-02-26T01:12:10;84166.20;;;22.50
76394;BMP180;65216;51.090;-115.352;2024-02-26T01:14:37;84171.00;;;22.50
76394;BMP180;65216;51.090;-115.352;2024-02-26T01:17:03;84161.60;;;22.50
76394;BMP180;65216;51.090;-115.352;2024-02-26T01:19:33;84137.60;;;22.50
76394;BMP180;65216;51.090;-115.352;2024-02-26T01:22:00;84159.60;;;22.50
76394;BMP180;65216;51.090;-115.352;2024-02-26T01:24:30;84173.80;;;22.50
76394;BMP180;65216;51.090;-115.352;2024-02-26T01:26:57;84176.00;;;22.50
76394;BMP180;65216;51.090;-115.352;2024-02-26T01:29:23;84152.40;;;22.50
76394;BMP180;65216;51.090;-115.352;2024-02-26T01:31:50;84149.60;;;22.50
76394;BMP180;65216;51.090;-115.352;2024-02-26T01:34:17;84161.60;;;22.50
76394;BMP180;65216;51.090;-115.352;2024-02-26T01:36:44;84163.20;;;22.50
76394;BMP180;65216;51.090;-115.352;2024-02-26T01:39:12;84159.20;;;22.50
76394;BMP180;65216;51.090;-115.352;2024-02-26T01:41:40;84136.00;;;22.50
76394;BMP180;65216;51.090;-115.352;2024-02-26T01:44:07;84142.40;;;22.50
76394;BMP180;65216;51.090;-115.352;2024-02-26T01:46:35;84148.60;;;22.50
76394;BMP180;65216;51.090;-115.352;2024-02-26T01:49:03;84150.20;;;22.50
76394;BMP180;65216;51.090;-115.352;2024-02-26T01:51:32;84135.00;;;22.50
76394;BMP180;65216;51.090;-115.352;2024-02-26T01:54:03;84145.60;;;22.50
76394;BMP180;65216;51.090;-115.352;2024-02-26T01:56:31;84149.20;;;22.50
76394;BMP180;65216;51.090;-115.352;2024-02-26T01:58:59;84135.00;;;22.50
76394;BMP180;65216;51.090;-115.352;2024-02-26T02:01:33;84108.40;;;22.50
76394;BMP180;65216;51.090;-115.352;2024-02-26T02:04:04;84107.80;;;22.52
76394;BMP180;65216;51.090;-115.352;2024-02-26T02:06:31;84135.20;;;22.50
76394;BMP180;65216;51.090;-115.352;2024-02-26T02:08:58;84150.60;;;22.50
76394;BMP180;65216;51.090;-115.352;2024-02-26T02:11:27;84136.60;;;22.50
76394;BMP180;65216;51.090;-115.352;2024-02-26T02:13:54;84130.80;;;22.56
76394;BMP180;65216;51.090;-115.352;2024-02-26T02:16:21;84130.80;;;22.50
76394;BMP180;65216;51.090;-115.352;2024-02-26T02:18:50;84121.20;;;22.50
76394;BMP180;65216;51.090;-115.352;2024-02-26T02:21:17;84135.20;;;22.50
76394;BMP180;65216;51.090;-115.352;2024-02-26T02:23:44;84144.20;;;22.50
76394;BMP180;65216;51.090;-115.352;2024-02-26T02:26:16;84123.40;;;22.50
76394;BMP180;65216;51.090;-115.352;2024-02-26T02:28:45;84124.80;;;22.50
76394;BMP180;65216;51.090;-115.352;2024-02-26T02:31:13;84135.80;;;22.50
76394;BMP180;65216;51.090;-115.352;2024-02-26T02:33:40;84135.80;;;22.50
76394;BMP180;65216;51.090;-115.352;2024-02-26T02:36:08;84124.00;;;22.50
76394;BMP180;65216;51.090;-115.352;2024-02-26T02:38:37;84126.20;;;22.50
76394;BMP180;65216;51.090;-115.352;2024-02-26T02:41:05;84127.20;;;22.50
76394;BMP180;65216;51.090;-115.352;2024-02-26T02:43:31;84090.60;;;22.50
76394;BMP180;65216;51.090;-115.352;2024-02-26T02:46:00;84115.40;;;22.50
76394;BMP180;65216;51.090;-115.352;2024-02-26T02:48:27;84133.80;;;22.50
76394;BMP180;65216;51.090;-115.352;2024-02-26T02:50:56;84127.80;;;22.50
76394;BMP180;65216;51.090;-115.352;2024-02-26T02:53:23;84117.00;;;22.50
76394;BMP180;65216;51.090;-115.352;2024-02-26T02:55:53;84113.60;;;22.50
76394;BMP180;65216;51.090;-115.352;2024-02-26T02:58:20;84126.20;;;22.50
76394;BMP180;65216;51.090;-115.352;2024-02-26T03:00:50;84134.00;;;22.50
76394;BMP180;65216;51.090;-115.352;2024-02-26T03:03:17;84118.80;;;22.50
76394;BMP180;65216;51.090;-115.352;2024-02-26T03:05:43;84112.60;;;22.50
76394;BMP180;65216;51.090;-115.352;2024-02-26T03:08:10;84102.40;;;22.50
76394;BMP180;65216;51.090;-115.352;2024-02-26T03:10:40;84112.40;;;22.50
76394;BMP180;65216;51.090;-115.352;2024-02-26T03:13:08;84121.60;;;22.50
76394;BMP180;65216;51.090;-115.352;2024-02-26T03:15:35;84113.20;;;22.48
76394;BMP180;65216;51.090;-115.352;2024-02-26T03:18:02;84113.00;;;22.44
76394;BMP180;65216;51.090;-115.352;2024-02-26T03:20:29;84107.00;;;22.40
76394;BMP180;65216;51.090;-115.352;2024-02-26T03:22:56;84101.80;;;22.40
76394;BMP180;65216;51.090;-115.352;2024-02-26T03:25:22;84107.80;;;22.40
76394;BMP180;65216;51.090;-115.352;2024-02-26T03:27:51;84114.40;;;22.40
76394;BMP180;65216;51.090;-115.352;2024-02-26T03:30:18;84098.00;;;22.40
76394;BMP180;65216;51.090;-115.352;2024-02-26T03:32:45;84100.60;;;22.40
76394;BMP180;65216;51.090;-115.352;2024-02-26T03:35:13;84104.20;;;22.40
76394;BMP180;65216;51.090;-115.352;2024-02-26T03:37:40;84101.40;;;22.40
76394;BMP180;65216;51.090;-115.352;2024-02-26T03:40:07;84109.80;;;22.40
76394;BMP180;65216;51.090;-115.352;2024-02-26T03:42:35;84098.40;;;22.40
76394;BMP180;65216;51.090;-115.352;2024-02-26T03:45:02;84100.00;;;22.40
76394;BMP180;65216;51.090;-115.352;2024-02-26T03:47:29;84108.80;;;22.40
76394;BMP180;65216;51.090;-115.352;2024-02-26T03:49:56;84124.40;;;22.40
76394;BMP180;65216;51.090;-115.352;2024-02-26T03:52:23;84128.80;;;22.40
76394;BMP180;65216;51.090;-115.352;2024-02-26T03:54:49;84119.40;;;22.40
76394;BMP180;65216;51.090;-115.352;2024-02-26T03:57:16;84124.80;;;22.40
76394;BMP180;65216;51.090;-115.352;2024-02-26T03:59:43;84127.80;;;22.40
76394;BMP180;65216;51.090;-115.352;2024-02-26T04:02:12;84130.80;;;22.40
76394;BMP180;65216;51.090;-115.352;2024-02-26T04:04:39;84136.00;;;22.30
76394;BMP180;65216;51.090;-115.352;2024-02-26T04:07:06;84139.20;;;22.30
76394;BMP180;65216;51.090;-115.352;2024-02-26T04:09:33;84121.40;;;22.30
76394;BMP180;65216;51.090;-115.352;2024-02-26T04:12:00;84127.60;;;22.30
76394;BMP180;65216;51.090;-115.352;2024-02-26T04:14:29;84132.20;;;22.30
76394;BMP180;65216;51.090;-115.352;2024-02-26T04:17:00;84128.00;;;22.30
76394;BMP180;65216;51.090;-115.352;2024-02-26T04:19:27;84139.60;;;22.30
76394;BMP180;65216;51.090;-115.352;2024-02-26T04:21:55;84137.60;;;22.30
76394;BMP180;65216;51.090;-115.352;2024-02-26T04:24:22;84119.40;;;22.30
76394;BMP180;65216;51.090;-115.352;2024-02-26T04:26:48;84124.20;;;22.30
76394;BMP180;65216;51.090;-115.352;2024-02-26T04:29:16;84141.80;;;22.30
76394;BMP180;65216;51.090;-115.352;2024-02-26T04:31:42;84150.20;;;22.30
76394;BMP180;65216;51.090;-115.352;2024-02-26T04:34:09;84137.40;;;22.30
76394;BMP180;65216;51.090;-115.352;2024-02-26T04:36:36;84140.80;;;22.30
76394;BMP180;65216;51.090;-115.352;2024-02-26T04:39:03;84141.40;;;22.30
76394;BMP180;65216;51.090;-115.352;2024-02-26T04:41:30;84145.80;;;22.32
76394;BMP180;65216;51.090;-115.352;2024-02-26T04:43:56;84138.00;;;22.30
76394;BMP180;65216;51.090;-115.352;2024-02-26T04:46:23;84145.00;;;22.30
76394;BMP180;65216;51.090;-115.352;2024-02-26T04:48:53;84159.80;;;22.30
76394;BMP180;65216;51.090;-115.352;2024-02-26T04:51:20;84161.60;;;22.30
76394;BMP180;65216;51.090;-115.352;2024-02-26T04:53:47;84163.40;;;22.30
76394;BMP180;65216;51.090;-115.352;2024-02-26T04:56:16;84161.20;;;22.30
76394;BMP180;65216;51.090;-115.352;2024-02-26T04:58:43;84162.80;;;22.30
76394;BMP180;65216;51.090;-115.352;2024-02-26T05:01:10;84172.40;;;22.30
76394;BMP180;65216;51.090;-115.352;2024-02-26T05:03:37;84171.40;;;22.30
76394;BMP180;65216;51.090;-115.352;2024-02-26T05:06:05;84164.20;;;22.30
76394;BMP180;65216;51.090;-115.352;2024-02-26T05:08:31;84158.00;;;22.30
76394;BMP180;65216;51.090;-115.352;2024-02-26T05:11:00;84167.20;;;22.30
76394;BMP180;65216;51.090;-115.352;2024-02-26T05:13:27;84177.40;;;22.30
76394;BMP180;65216;51.090;-115.352;2024-02-26T05:15:54;84157.60;;;22.30
76394;BMP180;65216;51.090;-115.352;2024-02-26T05:18:23;84153.60;;;22.30
76394;BMP180;65216;51.090;-115.352;2024-02-26T05:20:58;84165.80;;;22.30
76394;BMP180;65216;51.090;-115.352;2024-02-26T05:23:27;84146.60;;;22.28
76394;BMP180;65216;51.090;-115.352;2024-02-26T05:25:54;84149.60;;;22.30
76394;BMP180;65216;51.090;-115.352;2024-02-26T05:28:21;84153.60;;;22.24
76394;BMP180;65216;51.090;-115.352;2024-02-26T05:30:48;84155.20;;;22.20
76394;BMP180;65216;51.090;-115.352;2024-02-26T05:33:15;84149.00;;;22.20
76394;BMP180;65216;51.090;-115.352;2024-02-26T05:35:42;84161.60;;;22.22
76394;BMP180;65216;51.090;-115.352;2024-02-26T05:38:09;84177.80;;;22.28
76394;BMP180;65216;51.090;-115.352;2024-02-26T05:40:38;84167.40;;;22.20
76394;BMP180;65216;51.090;-115.352;2024-02-26T05:43:05;84167.60;;;22.20
76394;BMP180;65216;51.090;-115.352;2024-02-26T05:45:35;84191.60;;;22.20
76394;BMP180;65216;51.090;-115.352;2024-02-26T05:48:02;84164.80;;;22.20
76394;BMP180;65216;51.090;-115.352;2024-02-26T05:50:29;84179.20;;;22.20
76394;BMP180;65216;51.090;-115.352;2024-02-26T05:52:56;84172.80;;;22.20
76394;BMP180;65216;51.090;-115.352;2024-02-26T05:55:23;84176.60;;;22.20
76394;BMP180;65216;51.090;-115.352;2024-02-26T05:57:50;84180.80;;;22.20
76394;BMP180;65216;51.090;-115.352;2024-02-26T06:00:17;84189.60;;;22.20
76394;BMP180;65216;51.090;-115.352;2024-02-26T06:02:44;84189.60;;;22.20
76394;BMP180;65216;51.090;-115.352;2024-02-26T06:05:11;84187.80;;;22.20
76394;BMP180;65216;51.090;-115.352;2024-02-26T06:07:38;84189.00;;;22.20
76394;BMP180;65216;51.090;-115.352;2024-02-26T06:10:08;84193.20;;;22.20
76394;BMP180;65216;51.090;-115.352;2024-02-26T06:12:38;84196.00;;;22.20
76394;BMP180;65216;51.090;-115.352;2024-02-26T06:15:09;84182.00;;;22.20
76394;BMP180;65216;51.090;-115.352;2024-02-26T06:17:41;84203.40;;;22.20
76394;BMP180;65216;51.090;-115.352;2024-02-26T06:20:08;84214.80;;;22.20
76394;BMP180;65216;51.090;-115.352;2024-02-26T06:22:41;84217.80;;;22.20
76394;BMP180;65216;51.090;-115.352;2024-02-26T06:25:08;84224.20;;;22.20
76394;BMP180;65216;51.090;-115.352;2024-02-26T06:27:37;84212.80;;;22.16
76394;BMP180;65216;51.090;-115.352;2024-02-26T06:30:05;84202.60;;;22.12
76394;BMP180;65216;51.090;-115.352;2024-02-26T06:32:34;84222.60;;;22.20
76394;BMP180;65216;51.090;-115.352;2024-02-26T06:35:01;84230.60;;;22.20
76394;BMP180;65216;51.090;-115.352;2024-02-26T06:37:32;84232.00;;;22.20
76394;BMP180;65216;51.090;-115.352;2024-02-26T06:40:01;84223.00;;;22.20
76394;BMP180;65216;51.090;-115.352;2024-02-26T06:42:33;84233.00;;;22.20
76394;BMP180;65216;51.090;-115.352;2024-02-26T06:45:01;84223.20;;;22.16
76394;BMP180;65216;51.090;-115.352;2024-02-26T06:47:30;84237.80;;;22.12
76394;BMP180;65216;51.090;-115.352;2024-02-26T06:49:57;84244.40;;;22.10
76394;BMP180;65216;51.090;-115.352;2024-02-26T06:52:24;84263.00;;;22.10
76394;BMP180;65216;51.090;-115.352;2024-02-26T06:54:52;84264.40;;;22.10
76394;BMP180;65216;51.090;-115.352;2024-02-26T06:57:22;84263.20;;;22.10
76394;BMP180;65216;51.090;-115.352;2024-02-26T06:59:49;84275.20;;;22.10
76394;BMP180;65216;51.090;-115.352;2024-02-26T07:02:17;84287.00;;;22.00
76394;BMP180;65216;51.090;-115.352;2024-02-26T07:04:44;84273.60;;;22.00
76394;BMP180;65216;51.090;-115.352;2024-02-26T07:07:11;84277.20;;;22.00
76394;BMP180;65216;51.090;-115.352;2024-02-26T07:09:41;84272.20;;;22.00
76394;BMP180;65216;51.090;-115.352;2024-02-26T07:12:09;84252.20;;;22.00
76394;BMP180;65216;51.090;-115.352;2024-02-26T07:14:36;84254.60;;;22.00
76394;BMP180;65216;51.090;-115.352;2024-02-26T07:17:04;84257.40;;;22.00
76394;BMP180;65216;51.090;-115.352;2024-02-26T07:19:30;84258.00;;;21.94
76394;BMP180;65216;51.090;-115.352;2024-02-26T07:22:00;84256.20;;;21.94
76394;BMP180;65216;51.090;-115.352;2024-02-26T07:24:29;84262.60;;;21.90
76394;BMP180;65216;51.090;-115.352;2024-02-26T07:26:56;84282.00;;;21.90
76394;BMP180;65216;51.090;-115.352;2024-02-26T07:29:23;84284.60;;;21.90
76394;BMP180;65216;51.090;-115.352;2024-02-26T07:31:50;84273.00;;;21.90
76394;BMP180;65216;51.090;-115.352;2024-02-26T07:34:17;84278.00;;;21.90
76394;BMP180;65216;51.090;-115.352;2024-02-26T07:36:44;84289.80;;;21.90
76394;BMP180;65216;51.090;-115.352;2024-02-26T07:39:11;84294.60;;;21.90
76394;BMP180;65216;51.090;-115.352;2024-02-26T07:41:37;84291.80;;;21.90
76394;BMP180;65216;51.090;-115.352;2024-02-26T07:44:05;84287.00;;;21.90
76394;BMP180;65216;51.090;-115.352;2024-02-26T07:46:32;84300.20;;;21.90
76394;BMP180;65216;51.090;-115.352;2024-02-26T07:48:58;84308.80;;;21.90
76394;BMP180;65216;51.090;-115.352;2024-02-26T07:51:25;84312.20;;;21.90
76394;BMP180;65216;51.090;-115.352;2024-02-26T07:53:52;84313.00;;;21.90
76394;BMP180;65216;51.090;-115.352;2024-02-26T07:56:22;84325.40;;;21.90
76394;BMP180;65216;51.090;-115.352;2024-02-26T07:58:48;84327.60;;;21.90
76394;BMP180;65216;51.090;-115.352;2024-02-26T08:01:15;84328.00;;;21.90
76394;BMP180;65216;51.090;-115.352;2024-02-26T08:03:45;84331.20;;;21.90
76394;BMP180;65216;51.090;-115.352;2024-02-26T08:06:12;84328.80;;;21.90
76394;BMP180;65216;51.090;-115.352;2024-02-26T08:08:38;84321.60;;;21.90
76394;BMP180;65216;51.090;-115.352;2024-02-26T08:11:05;84341.80;;;21.88
76394;BMP180;65216;51.090;-115.352;2024-02-26T08:13:32;84352.40;;;21.82
76394;BMP180;65216;51.090;-115.352;2024-02-26T08:15:59;84358.80;;;21.80
76394;BMP180;65216;51.090;-115.352;2024-02-26T08:18:26;84363.20;;;21.80
76394;BMP180;65216;51.090;-115.352;2024-02-26T08:20:53;84366.20;;;21.80
76394;BMP180;65216;51.090;-115.352;2024-02-26T08:23:19;84376.40;;;21.80
76394;BMP180;65216;51.090;-115.352;2024-02-26T08:25:46;84377.80;;;21.80
76394;BMP180;65216;51.090;-115.352;2024-02-26T08:28:14;84376.20;;;21.80
76394;BMP180;65216;51.090;-115.352;2024-02-26T08:30:44;84374.00;;;21.80
76394;BMP180;65216;51.090;-115.352;2024-02-26T08:33:11;84381.60;;;21.80
76394;BMP180;65216;51.090;-115.352;2024-02-26T08:35:39;84371.40;;;21.80
76394;BMP180;65216;51.090;-115.352;2024-02-26T08:38:08;84378.20;;;21.80
76394;BMP180;65216;51.090;-115.352;2024-02-26T08:40:35;84373.40;;;21.78
76394;BMP180;65216;51.090;-115.352;2024-02-26T08:43:04;84379.20;;;21.80
76394;BMP180;65216;51.090;-115.352;2024-02-26T08:45:31;84390.20;;;21.78
76394;BMP180;65216;51.090;-115.352;2024-02-26T08:47:57;84401.40;;;21.78
76394;BMP180;65216;51.090;-115.352;2024-02-26T08:50:25;84407.60;;;21.70
76394;BMP180;65216;51.090;-115.352;2024-02-26T08:52:52;84411.20;;;21.70
76394;BMP180;65216;51.090;-115.352;2024-02-26T08:55:19;84421.80;;;21.70
76394;BMP180;65216;51.090;-115.352;2024-02-26T08:57:47;84429.60;;;21.70
76394;BMP180;65216;51.090;-115.352;2024-02-26T09:00:15;84451.80;;;21.70
76394;BMP180;65216;51.090;-115.352;2024-02-26T09:02:43;84459.40;;;21.70
76394;BMP180;65216;51.090;-115.352;2024-02-26T09:05:10;84474.20;;;21.70
76394;BMP180;65216;51.090;-115.352;2024-02-26T09:07:37;84474.60;;;21.72
76394;BMP180;65216;51.090;-115.352;2024-02-26T09:10:05;84489.00;;;21.80
76394;BMP180;65216;51.090;-115.352;2024-02-26T09:12:35;84511.60;;;21.80
76394;BMP180;65216;51.090;-115.352;2024-02-26T09:15:02;84523.40;;;21.80
76394;BMP180;65216;51.090;-115.352;2024-02-26T09:17:29;84534.40;;;21.80
76394;BMP180;65216;51.090;-115.352;2024-02-26T09:19:56;84547.80;;;21.80
76394;BMP180;65216;51.090;-115.352;2024-02-26T09:22:23;84562.40;;;21.80
76394;BMP180;65216;51.090;-115.352;2024-02-26T09:24:50;84570.60;;;21.80
76394;BMP180;65216;51.090;-115.352;2024-02-26T09:27:18;84593.00;;;21.80
76394;BMP180;65216;51.090;-115.352;2024-02-26T09:29:48;84609.80;;;21.80
76394;BMP180;65216;51.090;-115.352;2024-02-26T09:32:15;84611.60;;;21.80
76394;BMP180;65216;51.090;-115.352;2024-02-26T09:34:42;84605.60;;;21.80
76394;BMP180;65216;51.090;-115.352;2024-02-26T09:37:08;84611.00;;;21.80
76394;BMP180;65216;51.090;-115.352;2024-02-26T09:39:37;84622.20;;;21.80
76394;BMP180;65216;51.090;-115.352;2024-02-26T09:42:13;84622.00;;;21.80
76394;BMP180;65216;51.090;-115.352;2024-02-26T09:44:41;84626.60;;;21.80
76394;BMP180;65216;51.090;-115.352;2024-02-26T09:47:11;84640.20;;;21.80
76394;BMP180;65216;51.090;-115.352;2024-02-26T09:49:49;84642.40;;;21.84
76394;BMP180;65216;51.090;-115.352;2024-02-26T09:52:19;84650.40;;;21.80
76394;BMP180;65216;51.090;-115.352;2024-02-26T09:54:48;84655.40;;;21.80
76394;BMP180;65216;51.090;-115.352;2024-02-26T09:57:19;84664.40;;;21.80
76394;BMP180;65216;51.090;-115.352;2024-02-26T09:59:55;84657.20;;;21.80
76394;BMP180;65216;51.090;-115.352;2024-02-26T10:02:27;84668.40;;;21.80
76394;BMP180;65216;51.090;-115.352;2024-02-26T10:04:55;84678.20;;;21.80
76394;BMP180;65216;51.090;-115.352;2024-02-26T10:07:24;84686.00;;;21.80
76394;BMP180;65216;51.090;-115.352;2024-02-26T10:09:51;84687.60;;;21.80
76394;BMP180;65216;51.090;-115.352;2024-02-26T10:12:18;84689.20;;;21.80
76394;BMP180;65216;51.090;-115.352;2024-02-26T10:14:46;84685.20;;;21.80
76394;BMP180;65216;51.090;-115.352;2024-02-26T10:17:13;84681.40;;;21.80
76394;BMP180;65216;51.090;-115.352;2024-02-26T10:19:39;84685.40;;;21.82
76394;BMP180;65216;51.090;-115.352;2024-02-26T10:22:07;84699.00;;;21.82
76394;BMP180;65216;51.090;-115.352;2024-02-26T10:24:33;84700.60;;;21.80
76394;BMP180;65216;51.090;-115.352;2024-02-26T10:27:02;84702.00;;;21.80
76394;BMP180;65216;51.090;-115.352;2024-02-26T10:29:29;84707.20;;;21.80
76394;BMP180;65216;51.090;-115.352;2024-02-26T10:31:56;84719.60;;;21.80
76394;BMP180;65216;51.090;-115.352;2024-02-26T10:34:23;84712.60;;;21.80
76394;BMP180;65216;51.090;-115.352;2024-02-26T10:36:54;84715.00;;;21.80
76394;BMP180;65216;51.090;-115.352;2024-02-26T10:39:24;84723.40;;;21.80
76394;BMP180;65216;51.090;-115.352;2024-02-26T10:41:50;84714.00;;;21.80
76394;BMP180;65216;51.090;-115.352;2024-02-26T10:44:17;84716.20;;;21.80
76394;BMP180;65216;51.090;-115.352;2024-02-26T10:46:47;84733.00;;;21.80
76394;BMP180;65216;51.090;-115.352;2024-02-26T10:49:17;84751.60;;;21.80
76394;BMP180;65216;51.090;-115.352;2024-02-26T10:51:55;84763.60;;;21.80
76394;BMP180;65216;51.090;-115.352;2024-02-26T10:54:27;84774.60;;;21.80
76394;BMP180;65216;51.090;-115.352;2024-02-26T10:57:01;84784.20;;;21.80
76394;BMP180;65216;51.090;-115.352;2024-02-26T10:59:28;84794.20;;;21.80
76394;BMP180;65216;51.090;-115.352;2024-02-26T11:01:57;84790.00;;;21.80
76394;BMP180;65216;51.090;-115.352;2024-02-26T11:04:25;84789.40;;;21.78
76394;BMP180;65216;51.090;-115.352;2024-02-26T11:06:57;84801.60;;;21.76
76394;BMP180;65216;51.090;-115.352;2024-02-26T11:09:25;84816.20;;;21.70
76394;BMP180;65216;51.090;-115.352;2024-02-26T11:11:54;84821.20;;;21.70
76394;BMP180;65216;51.090;-115.352;2024-02-26T11:14:21;84818.40;;;21.70
76394;BMP180;65216;51.090;-115.352;2024-02-26T11:16:53;84820.40;;;21.70
76394;BMP180;65216;51.090;-115.352;2024-02-26T11:19:22;84836.40;;;21.70
76394;BMP180;65216;51.090;-115.352;2024-02-26T11:21:51;84851.20;;;21.68
76394;BMP180;65216;51.090;-115.352;2024-02-26T11:24:17;84862.80;;;21.60
76394;BMP180;65216;51.090;-115.352;2024-02-26T11:26:56;84865.60;;;21.60
76394;BMP180;65216;51.090;-115.352;2024-02-26T11:29:39;84866.80;;;21.60
76394;BMP180;65216;51.090;-115.352;2024-02-26T11:32:08;84869.20;;;21.60
76394;BMP180;65216;51.090;-115.352;2024-02-26T11:34:36;84882.60;;;21.60
76394;BMP180;65216;51.090;-115.352;2024-02-26T11:37:16;84899.20;;;21.60
76394;BMP180;65216;51.090;-115.352;2024-02-26T11:39:45;84905.80;;;21.60
76394;BMP180;65216;51.090;-115.352;2024-02-26T11:42:16;84914.00;;;21.58
76394;BMP180;65216;51.090;-115.352;2024-02-26T11:44:46;84912.40;;;21.50
76394;BMP180;65216;51.090;-115.352;2024-02-26T11:47:19;84909.40;;;21.50
76394;BMP180;65216;51.090;-115.352;2024-02-26T11:49:46;84920.80;;;21.50
76394;BMP180;65216;51.090;-115.352;2024-02-26T11:52:15;84932.20;;;21.50
76394;BMP180;65216;51.090;-115.352;2024-02-26T11:54:52;84944.20;;;21.50
76394;BMP180;65216;51.090;-115.352;2024-02-26T11:57:28;84946.40;;;21.50
76394;BMP180;65216;51.090;-115.352;2024-02-26T12:00:14;84950.60;;;21.50
76394;BMP180;65216;51.090;-115.352;2024-02-26T12:02:55;84954.60;;;21.48
76394;BMP180;65216;51.090;-115.352;2024-02-26T12:05:32;84964.20;;;21.46
76394;BMP180;65216;51.090;-115.352;2024-02-26T12:08:08;84969.80;;;21.40
76394;BMP180;65216;51.090;-115.352;2024-02-26T12:10:39;84970.80;;;21.40
76394;BMP180;65216;51.090;-115.352;2024-02-26T12:13:18;84976.00;;;21.40
76394;BMP180;65216;51.090;-115.352;2024-02-26T12:15:57;84982.60;;;21.40
76394;BMP180;65216;51.090;-115.352;2024-02-26T12:18:28;84984.00;;;21.40
76394;BMP180;65216;51.090;-115.352;2024-02-26T12:21:04;84998.60;;;21.40
76394;BMP180;65216;51.090;-115.352;2024-02-26T12:23:31;85005.40;;;21.40
76394;BMP180;65216;51.090;-115.352;2024-02-26T12:26:02;85012.40;;;21.40
76394;BMP180;65216;51.090;-115.352;2024-02-26T12:28:32;85012.60;;;21.40
76394;BMP180;65216;51.090;-115.352;2024-02-26T12:30:59;85023.40;;;21.40
76394;BMP180;65216;51.090;-115.352;2024-02-26T12:33:27;85029.60;;;21.40
76394;BMP180;65216;51.090;-115.352;2024-02-26T12:35:55;85031.60;;;21.40
76394;BMP180;65216;51.090;-115.352;2024-02-26T12:38:22;85038.00;;;21.40
76394;BMP180;65216;51.090;-115.352;2024-02-26T12:40:49;85043.00;;;21.40
76394;BMP180;65216;51.090;-115.352;2024-02-26T12:43:16;85043.00;;;21.40
76394;BMP180;65216;51.090;-115.352;2024-02-26T12:45:43;85043.80;;;21.36
76394;BMP180;65216;51.090;-115.352;2024-02-26T12:48:13;85052.00;;;21.30
76394;BMP180;65216;51.090;-115.352;2024-02-26T12:50:44;85047.00;;;21.30
76394;BMP180;65216;51.090;-115.352;2024-02-26T12:53:12;85061.20;;;21.30
76394;BMP180;65216;51.090;-115.352;2024-02-26T12:55:39;85070.20;;;21.30
76394;BMP180;65216;51.090;-115.352;2024-02-26T12:58:11;85073.00;;;21.30
76394;BMP180;65216;51.090;-115.352;2024-02-26T13:00:39;85095.80;;;21.30
76394;BMP180;65216;51.090;-115.352;2024-02-26T13:03:07;85095.40;;;21.30
76394;BMP180;65216;51.090;-115.352;2024-02-26T13:05:34;85106.40;;;21.30
76394;BMP180;65216;51.090;-115.352;2024-02-26T13:08:02;85116.20;;;21.30
76394;BMP180;65216;51.090;-115.352;2024-02-26T13:10:29;85121.00;;;21.30
76394;BMP180;65216;51.090;-115.352;2024-02-26T13:12:57;85132.80;;;21.34
76394;BMP180;65216;51.090;-115.352;2024-02-26T13:15:24;85129.60;;;21.38
76394;BMP180;65216;51.090;-115.352;2024-02-26T13:17:51;85138.80;;;21.34
76394;BMP180;65216;51.090;-115.352;2024-02-26T13:20:29;85151.00;;;21.40
76394;BMP180;65216;51.090;-115.352;2024-02-26T13:23:09;85155.20;;;21.32
76394;BMP180;65216;51.090;-115.352;2024-02-26T13:25:37;85163.00;;;21.30
76394;BMP180;65216;51.090;-115.352;2024-02-26T13:28:19;85162.60;;;21.32
76394;BMP180;65216;51.090;-115.352;2024-02-26T13:30:57;85169.00;;;21.30
76394;BMP180;65216;51.090;-115.352;2024-02-26T13:33:29;85181.00;;;21.34
76394;BMP180;65216;51.090;-115.352;2024-02-26T13:35:58;85191.60;;;21.30
76394;BMP180;65216;51.090;-115.352;2024-02-26T13:38:27;85181.40;;;21.36